Terminal Aerodrome Forecast
Issued by NWS Greer, SC

Home | Current Version | Previous Version | Text Only | Print | Product List | Glossary On
Versions: 1 2 3 4 5 6 7 8 9 10 11 12 13 14 15 16 17 18
198
FTUS42 KGSP 231000 CCA
TAFGSP
TAF COR
KGSP 231000Z 2310/2406 07012G19KT 4SM RA BR OVC025
     FM231130 07012G20KT 3SM RA OVC012
     FM231300 07014G24KT 3SM RA BR OVC008
     FM231500 07015G25KT 2SM +RA BR OVC004
     FM231800 07013G21KT 3SM RA BR OVC005=

USA.gov is the U.S. government's official web portal to all federal, state and local government web resources and services.